My Meet Scores
Chloe Wilkinson, Chelsea Piers Connecticut - MyMeetScores.com
Top100 | Top Teams | Upcoming Meets | Completed Meets | Latest | Add Scores | Help| Support | Bookmark and Share

Chloe Wilkinson, Chelsea Piers Connecticut
Personal Bests
LevelVault BarsBeamFloorAA
XB8.7009.300 9.0509.30036.350
XG8.8009.500 9.5009.27535.700
XS8.4009.450 9.5009.25036.600
Meet Scores
Date Meet Team Session Level Division Vault Bars Beam Floor AA
2019-04-27 Xcel Gold, Platinum, Diamond State Championsh Chelsea Piers Connecticut 2 XG Sr C 8.750 47T 8.600 20T 9.200 13T 8.750 45 35.300 23T
2019-02-16 Chelsea Piers Winter Challenge Chelsea Piers Connecticut F3 XG Older 8.800 11T 8.400 12T 9.500 1 8.900 10T 35.600 9
2019-02-08 Team Challenge 2019 Chelsea Piers Connecticut R8 XG Sr B 8.700 9T 8.500 9T 9.450 1 9.000 8 35.650 7
2019-01-18 DGS Northeast Invite Chelsea Piers Connecticut 6B XG Sr A 8.800 1 8.900 5T 8.650 6 8.900 5T 35.250 4
2018-04-21 2018 Connecticut XG, XP, XD State Championships Chelsea Piers Connecticut 3 XG Jr. D 8.500 34T 8.975 23 9.000 13T 9.150 21T 35.625 21
2018-03-01 Holiday Costume Cup 2018 Chelsea Piers Connecticut 8 XG Sr A 8.200 10T 9.500 2 9.150 1 8.850 5 35.700 3
2018-02-16 Chelsea Piers Winter Challenge Chelsea Piers Connecticut F-1 XG JR B 0.000 15 8.725 6 9.250 2 8.900 13 26.875 15
2018-02-09 Team Challenge 2018 Chelsea Piers Connecticut 02B XG Sr A 0.000 12 8.500 11T 9.000 7 8.800 9 26.300 12
2018-01-19 Kinetic Kids Invitational Chelsea Piers Connecticut 6 XG Jr B 7.550 9 8.500 5 8.250 6T 8.825 6 33.125 8
2017-04-29 Xcel Gold, Platinum, Diamond State Championships Chelsea Piers Connecticut 6 XG Ch. G 8.650 11T 8.200 15 9.375 4 8.425 15 34.650 12T
2017-02-18 Chelsea Piers Winter Challenge Chelsea Piers Connecticut F-2 XG JR B 7.725 18 9.350 10T 8.850 7 8.600 16T 34.525 14
2017-02-10 Team Challenge 2017 Chelsea Piers Connecticut 09B XG Inter 7.700 16 8.750 6 9.025 3 8.550 12 34.025 10
2017-01-13 Northeast Invitational Chelsea Piers Connecticut 7 XG 12 yrs. 8.550 13 8.550 15 8.150 13T 8.450 15 33.700 16
2016-04-23 2016 Connecticut XG, XP, XD State Meet Chelsea Piers Connecticut 2 XG Ch.B 8.400 14T 8.350 13 8.700 9 8.500 13 33.950 14
2016-02-20 2016 Harlem Invitational Chelsea Piers Connecticut 1 XG 11 & Under 8.000 12 8.200 11 8.125 9 9.275 4 33.600 9
2016-02-13 Chelsea Piers Winter Challenge Chelsea Piers Connecticut F3 XG CH A 7.900 16T 8.450 10 9.150 3T 8.825 7 34.325 7T
2015-03-05 Holiday Costume Cup 2015 Chelsea Piers Connecticut 9 XS Jr B 8.400 7T 9.450 4 9.500 2 9.250 4T 36.600 3
2015-02-14 Chelsea Piers Winter Challenge Chelsea Piers Connecticut G8 XS Jr A 8.025 6 9.200 4T 8.800 12 8.825 8 34.850 8
2015-01-16 2015 Cirque de Galaxy Chelsea Piers Connecticut 02 XS 10 8.100 15T 8.850 10T 9.050 7 9.000 10T 35.000 10T
2014-02-15 Chelsea Piers Winter Challenge Chelsea Piers Connecticut 5 XB Div A 8.700 4 9.300 3T 9.050 3 9.300 4* 36.350 3T
Get your scores on
a t-shirt, pin, or hoodie

www.lazysuits.com